Time;durP1;ratioP1;P1;durP2;ratioP2;P2;SDS_P1;SDS_P2;PMS_P1;PMS_P2;Temp;Humidity;BMP_temperature;BMP_pressure;BME280_temperature;BME280_humidity;BME280_pressure;Samples;Min_cycle;Max_cycle;Signal;HPM_P1;HPM_P2
2023/06/07 00:02:11;;;;;;;8.15;4.38;;;;;;;9.35;100.00;101711.03;6169226;23;20004;-82
2023/06/07 00:04:39;;;;;;;9.25;4.68;;;;;;;9.53;100.00;101751.41;6246368;23;20004;-85
2023/06/07 00:07:05;;;;;;;7.65;4.63;;;;;;;9.47;100.00;101735.88;6219390;23;20054;-86
2023/06/07 00:09:31;;;;;;;10.48;5.03;;;;;;;9.39;100.00;101736.63;6194329;23;20000;-83
2023/06/07 00:11:57;;;;;;;11.55;5.30;;;;;;;9.35;100.00;101735.19;6219203;23;20000;-87
2023/06/07 00:14:23;;;;;;;11.00;5.55;;;;;;;9.36;100.00;101747.63;6194296;23;20011;-85
2023/06/07 00:16:50;;;;;;;11.27;5.53;;;;;;;9.27;100.00;101734.22;6246458;23;19996;-84
2023/06/07 00:19:21;;;;;;;7.45;4.93;;;;;;;9.06;100.00;101718.28;6193984;23;20310;-83
2023/06/07 00:21:48;;;;;;;8.55;4.68;;;;;;;9.09;100.00;101740.31;6170346;23;20000;-84
2023/06/07 00:24:15;;;;;;;8.23;4.72;;;;;;;8.86;100.00;101704.03;6194524;23;20004;-83
2023/06/07 00:26:41;;;;;;;9.15;4.90;;;;;;;8.87;100.00;101719.16;6194610;23;20424;-83
2023/06/07 00:29:07;;;;;;;7.82;5.40;;;;;;;8.89;100.00;101728.75;6194682;23;20008;-84
2023/06/07 00:31:32;;;;;;;10.13;5.38;;;;;;;8.83;100.00;101725.75;6219882;23;20004;-82
2023/06/07 00:33:58;;;;;;;9.15;4.47;;;;;;;8.61;100.00;101702.75;6219616;23;20004;-83
2023/06/07 00:36:24;;;;;;;13.35;5.68;;;;;;;8.72;100.00;101738.31;6219653;23;20008;-83
2023/06/07 00:38:50;;;;;;;10.23;4.95;;;;;;;8.63;100.00;101728.44;6219171;23;20054;-82
2023/06/07 00:41:16;;;;;;;9.65;6.90;;;;;;;8.58;100.00;101730.69;6246244;23;20067;-85
2023/06/07 00:43:42;;;;;;;8.95;5.38;;;;;;;8.44;100.00;101729.25;6169545;23;20039;-81
2023/06/07 00:46:08;;;;;;;10.38;5.60;;;;;;;8.40;100.00;101738.56;6194570;23;20007;-83
2023/06/07 00:48:34;;;;;;;11.60;5.18;;;;;;;8.30;100.00;101717.06;6219506;23;20004;-83
2023/06/07 00:51:00;;;;;;;9.27;5.07;;;;;;;8.35;100.00;101732.72;6169572;23;20011;-84
2023/06/07 00:53:27;;;;;;;9.75;4.35;;;;;;;8.13;100.00;101715.03;6194308;23;20004;-82
2023/06/07 00:55:53;;;;;;;10.05;5.18;;;;;;;8.08;100.00;101731.53;6195322;23;20010;-82
2023/06/07 00:58:19;;;;;;;7.30;4.65;;;;;;;7.92;100.00;101725.81;6195846;23;20080;-85
2023/06/07 01:00:47;;;;;;;8.88;5.28;;;;;;;7.86;100.00;101734.41;6231243;23;20008;-85
2023/06/07 01:03:14;;;;;;;8.95;4.85;;;;;;;7.92;100.00;101741.88;6195651;23;20008;-83
2023/06/07 01:05:39;;;;;;;12.30;4.32;;;;;;;7.95;100.00;101735.41;6221344;23;20007;-83
2023/06/07 01:08:06;;;;;;;10.75;4.95;;;;;;;7.90;100.00;101736.66;6196052;23;20030;-83
2023/06/07 01:10:32;;;;;;;10.88;5.20;;;;;;;7.79;100.00;101720.69;6246478;23;20004;-81
2023/06/07 01:12:58;;;;;;;11.60;5.43;;;;;;;7.73;100.00;101718.56;6221197;23;20004;-81
2023/06/07 01:15:24;;;;;;;11.95;5.38;;;;;;;7.76;100.00;101723.63;6247688;22;20368;-83
2023/06/07 01:17:51;;;;;;;12.27;5.07;;;;;;;7.72;100.00;101717.69;6245949;23;20026;-82
2023/06/07 01:20:23;;;;;;;8.57;4.65;;;;;;;7.74;100.00;101736.31;6196162;23;20332;-83
2023/06/07 01:22:51;;;;;;;9.85;5.07;;;;;;;7.69;100.00;101723.31;6245797;23;20031;-84
2023/06/07 01:25:16;;;;;;;11.02;5.50;;;;;;;7.78;100.00;101728.84;6245968;23;20024;-80
2023/06/07 01:27:45;;;;;;;12.30;5.38;;;;;;;7.75;100.00;101731.78;6195582;23;20015;-81
2023/06/07 01:30:14;;;;;;;8.90;4.90;;;;;;;7.67;100.00;101727.09;6245869;23;20015;-82
2023/06/07 01:32:41;;;;;;;10.73;5.35;;;;;;;7.69;100.00;101735.84;6195736;23;20000;-80
2023/06/07 01:35:09;;;;;;;13.93;5.72;;;;;;;7.62;100.00;101726.66;6247773;22;20027;-82
2023/06/07 01:37:35;;;;;;;9.10;4.70;;;;;;;7.66;100.00;101736.97;6246068;23;20008;-83
2023/06/07 01:40:04;;;;;;;10.45;4.95;;;;;;;7.62;100.00;101735.56;6245336;23;20303;-83
2023/06/07 01:42:30;;;;;;;10.45;5.07;;;;;;;7.71;100.00;101728.53;6220999;23;20081;-84
2023/06/07 01:44:56;;;;;;;10.40;5.75;;;;;;;7.71;100.00;101725.88;6220634;23;20493;-80
2023/06/07 01:47:22;;;;;;;11.70;5.55;;;;;;;7.66;100.00;101725.41;6245717;23;20050;-83
2023/06/07 01:49:47;;;;;;;9.95;5.60;;;;;;;7.75;100.00;101735.31;6220766;23;20000;-83
2023/06/07 01:52:13;;;;;;;8.88;5.05;;;;;;;7.66;100.00;101717.38;6220560;23;20004;-88
2023/06/07 01:54:39;;;;;;;8.93;5.03;;;;;;;7.70;100.00;101719.69;6220285;23;20004;-81
2023/06/07 01:57:05;;;;;;;12.50;5.50;;;;;;;7.66;100.00;101730.78;6245843;23;20012;-82
2023/06/07 01:59:40;;;;;;;9.45;4.65;;;;;;;7.53;100.00;101738.16;6220552;23;20074;-82
2023/06/07 02:02:32;;;;;;;11.15;5.15;;;;;;;7.41;100.00;101734.69;6220583;23;20058;-81
2023/06/07 02:05:03;;;;;;;10.13;5.25;;;;;;;7.43;100.00;101740.78;6195591;23;20014;-82
2023/06/07 02:07:30;;;;;;;12.18;5.40;;;;;;;7.23;100.00;101718.41;6220503;23;20091;-80
2023/06/07 02:09:56;;;;;;;9.50;4.75;;;;;;;7.22;100.00;101728.28;6195059;23;20004;-87
2023/06/07 02:12:22;;;;;;;8.13;4.22;;;;;;;7.18;100.00;101728.66;6220266;23;20000;-83
2023/06/07 02:14:52;;;;;;;10.25;4.85;;;;;;;7.01;100.00;101706.88;6195396;23;20015;-81
2023/06/07 02:17:19;;;;;;;8.82;4.88;;;;;;;7.19;100.00;101722.31;6221065;23;20000;-80
2023/06/07 02:19:45;;;;;;;12.20;6.25;;;;;;;7.13;100.00;101709.47;6195432;23;20078;-83
2023/06/07 02:22:12;;;;;;;10.95;5.75;;;;;;;7.01;100.00;101706.88;6245613;23;20039;-86
2023/06/07 02:24:38;;;;;;;10.55;4.70;;;;;;;6.88;100.00;101708.00;6195209;23;20032;-81
2023/06/07 02:27:04;;;;;;;8.90;4.72;;;;;;;6.96;100.00;101727.78;6245312;23;20011;-80
2023/06/07 02:29:30;;;;;;;11.30;5.53;;;;;;;6.83;100.00;101705.72;6220232;23;20004;-83
2023/06/07 02:31:57;;;;;;;13.13;5.60;;;;;;;6.93;100.00;101709.34;6195238;23;20058;-81
2023/06/07 02:34:24;;;;;;;13.10;6.13;;;;;;;6.89;100.00;101704.38;6245341;23;20030;-81
2023/06/07 02:36:50;;;;;;;12.23;4.82;;;;;;;6.83;100.00;101705.72;6220405;23;20310;-80
2023/06/07 02:39:16;;;;;;;9.23;5.00;;;;;;;6.85;100.00;101709.09;6246942;22;20000;-83
2023/06/07 02:41:41;;;;;;;12.13;5.53;;;;;;;6.85;100.00;101716.28;6219975;23;20007;-80
2023/06/07 02:44:07;;;;;;;10.45;4.75;;;;;;;6.79;100.00;101701.59;6246563;22;20004;-82
2023/06/07 02:46:32;;;;;;;11.23;5.22;;;;;;;6.74;100.00;101701.97;6194906;23;20000;-80
2023/06/07 02:48:58;;;;;;;11.00;5.05;;;;;;;6.73;100.00;101691.44;6195057;23;20004;-80
2023/06/07 02:51:25;;;;;;;10.55;5.60;;;;;;;6.72;100.00;101701.28;6245408;23;20008;-84
2023/06/07 02:53:50;;;;;;;9.70;4.90;;;;;;;6.70;100.00;101711.25;6245392;23;19996;-80
2023/06/07 02:56:16;;;;;;;15.68;5.35;;;;;;;6.69;100.00;101708.69;6219994;23;20011;-80
2023/06/07 02:58:43;;;;;;;12.02;5.43;;;;;;;6.76;100.00;101708.06;6219810;23;20388;-78
2023/06/07 03:01:10;;;;;;;10.50;5.55;;;;;;;6.84;100.00;101699.41;6219979;23;20004;-79
2023/06/07 03:03:36;;;;;;;10.20;5.32;;;;;;;6.87;100.00;101698.28;6245170;23;20008;-80
2023/06/07 03:06:07;;;;;;;13.18;5.63;;;;;;;6.74;100.00;101682.44;6245497;23;20004;-79
2023/06/07 03:08:33;;;;;;;9.57;4.80;;;;;;;6.77;100.00;101692.84;6195409;23;20000;-79
2023/06/07 03:10:59;;;;;;;8.80;4.70;;;;;;;6.72;100.00;101697.72;6245032;23;20046;-81
2023/06/07 03:13:25;;;;;;;8.52;4.72;;;;;;;6.60;100.00;101697.78;6219509;23;20015;-81
2023/06/07 03:15:51;;;;;;;10.70;5.20;;;;;;;6.53;100.00;101693.06;6195099;23;20078;-82
2023/06/07 03:18:17;;;;;;;11.93;5.22;;;;;;;6.41;100.00;101686.94;6194642;23;20298;-82
2023/06/07 03:20:44;;;;;;;10.88;5.10;;;;;;;6.37;100.00;101686.31;6244993;23;20000;-83
2023/06/07 03:23:09;;;;;;;10.55;5.00;;;;;;;6.38;100.00;101692.53;6194837;23;20000;-80
2023/06/07 03:25:35;;;;;;;12.65;5.57;;;;;;;6.14;100.00;101669.50;6194955;23;20004;-82
2023/06/07 03:28:02;;;;;;;11.60;5.43;;;;;;;6.12;100.00;101681.28;6194889;23;20008;-80
2023/06/07 03:30:28;;;;;;;10.70;4.78;;;;;;;6.12;100.00;101689.31;6194724;23;20507;-81
2023/06/07 03:32:56;;;;;;;8.73;4.63;;;;;;;6.12;100.00;101683.97;6245178;23;19996;-80
2023/06/07 03:35:22;;;;;;;12.60;5.05;;;;;;;6.13;100.00;101686.50;6244797;23;20000;-79
2023/06/07 03:37:48;;;;;;;9.27;4.50;;;;;;;6.15;100.00;101681.88;6194661;23;20007;-81
2023/06/07 03:40:13;;;;;;;9.88;4.55;;;;;;;6.00;100.00;101669.75;6219782;23;20015;-79
2023/06/07 03:42:39;;;;;;;10.77;5.15;;;;;;;6.03;100.00;101672.19;6194634;23;20084;-80
2023/06/07 03:45:05;;;;;;;11.65;5.45;;;;;;;5.99;100.00;101672.56;6219625;23;20058;-79
2023/06/07 03:47:32;;;;;;;10.50;5.15;;;;;;;6.04;100.00;101679.25;6219708;23;20015;-80
2023/06/07 03:49:58;;;;;;;10.15;5.72;;;;;;;5.97;100.00;101650.50;6219714;23;20031;-81
2023/06/07 03:52:25;;;;;;;8.43;4.38;;;;;;;6.07;100.00;101678.97;6194502;23;20011;-80
2023/06/07 03:54:51;;;;;;;13.20;5.45;;;;;;;6.05;100.00;101680.94;6194720;23;20014;-79
2023/06/07 03:57:17;;;;;;;12.57;5.43;;;;;;;6.01;100.00;101679.50;6219667;23;20000;-83
2023/06/07 03:59:43;;;;;;;10.20;4.88;;;;;;;5.91;100.00;101686.50;6219180;23;20005;-80
2023/06/07 04:02:08;;;;;;;9.15;4.97;;;;;;;5.81;100.00;101677.53;6169915;23;20356;-79
2023/06/07 04:04:34;;;;;;;9.35;4.95;;;;;;;6.00;100.00;101680.44;6246309;23;20012;-81
2023/06/07 04:07:03;;;;;;;10.93;3.42;;;;;;;6.03;100.00;101690.03;6169574;23;20035;-80
2023/06/07 04:09:29;;;;;;;9.93;5.13;;;;;;;6.11;100.00;101685.78;6219254;23;20019;-80
2023/06/07 04:11:55;;;;;;;10.77;5.32;;;;;;;6.13;100.00;101693.66;6194422;23;20004;-80
2023/06/07 04:14:21;;;;;;;11.60;5.10;;;;;;;6.11;100.00;101685.78;6194487;23;20007;-80
2023/06/07 04:16:47;;;;;;;9.52;5.00;;;;;;;6.16;100.00;101677.38;6219577;23;20000;-79
2023/06/07 04:19:14;;;;;;;9.35;4.72;;;;;;;6.15;100.00;101675.69;6169644;23;20488;-81
2023/06/07 04:21:39;;;;;;;8.18;4.30;;;;;;;6.18;100.00;101678.13;6194583;23;20011;-79
2023/06/07 04:24:06;;;;;;;9.52;5.38;;;;;;;6.11;100.00;101675.09;6194486;23;20004;-80
2023/06/07 04:26:31;;;;;;;7.88;4.28;;;;;;;6.06;100.00;101677.31;6169682;23;20004;-80
2023/06/07 04:28:58;;;;;;;12.52;4.28;;;;;;;6.09;100.00;101665.53;6219359;23;20012;-81
2023/06/07 04:31:29;;;;;;;13.60;5.63;;;;;;;6.05;100.00;101643.53;6171623;23;20371;-80
2023/06/07 04:33:57;;;;;;;7.93;4.70;;;;;;;6.25;100.00;101665.97;6172439;23;20440;-79
2023/06/07 04:36:25;;;;;;;10.75;5.07;;;;;;;6.24;100.00;101661.59;6196554;23;20004;-79
2023/06/07 04:38:55;;;;;;;12.13;5.63;;;;;;;6.20;100.00;101672.66;6196254;23;20079;-81
2023/06/07 04:41:30;;;;;;;11.98;5.97;;;;;;;6.22;100.00;101660.88;6222128;23;19996;-78
2023/06/07 04:43:57;;;;;;;8.43;4.07;;;;;;;6.45;100.00;101666.97;6223354;23;20521;-79
2023/06/07 04:46:25;;;;;;;12.52;6.40;;;;;;;6.59;100.00;101656.03;6196073;23;20029;-80
2023/06/07 04:48:53;;;;;;;5.57;3.70;;;;;;;6.77;100.00;101660.78;6196169;23;20134;-79
2023/06/07 04:51:20;;;;;;;9.68;5.30;;;;;;;6.84;100.00;101656.63;6221289;23;20004;-80
2023/06/07 04:53:49;;;;;;;15.98;6.45;;;;;;;6.88;100.00;101660.75;6221297;23;20010;-79
2023/06/07 04:56:14;;;;;;;10.13;5.45;;;;;;;7.28;100.00;101665.38;6171331;23;20008;-83
2023/06/07 04:58:40;;;;;;;9.32;4.95;;;;;;;7.57;100.00;101672.66;6171162;23;20079;-78
2023/06/07 05:01:09;;;;;;;4.18;2.50;;;;;;;7.80;100.00;101668.81;6210276;23;20314;-82
2023/06/07 05:03:37;;;;;;;13.75;6.32;;;;;;;8.26;100.00;101674.63;6246325;23;20043;-80
2023/06/07 05:06:04;;;;;;;8.52;4.70;;;;;;;8.74;100.00;101672.00;6220269;23;20571;-82
2023/06/07 05:08:30;;;;;;;13.40;5.35;;;;;;;9.33;100.00;101661.19;6221171;23;20016;-79
2023/06/07 05:10:55;;;;;;;7.88;5.43;;;;;;;9.90;100.00;101668.16;6220792;23;20000;-79
2023/06/07 05:13:21;;;;;;;12.20;5.25;;;;;;;10.23;100.00;101659.63;6195712;23;20014;-79
2023/06/07 05:15:50;;;;;;;8.27;4.80;;;;;;;10.60;100.00;101656.00;6195466;23;20070;-81
2023/06/07 05:18:20;;;;;;;11.50;5.93;;;;;;;11.05;100.00;101671.19;6247534;22;20058;-80
2023/06/07 05:20:48;;;;;;;8.93;5.15;;;;;;;11.31;100.00;101665.81;6220994;23;20337;-80
2023/06/07 05:23:16;;;;;;;8.68;4.28;;;;;;;11.62;100.00;101674.25;6195878;23;20007;-80
2023/06/07 05:25:46;;;;;;;9.82;5.32;;;;;;;11.83;100.00;101674.69;6196058;23;20014;-79
2023/06/07 05:28:12;;;;;;;5.03;3.92;;;;;;;12.08;100.00;101678.34;6246171;23;20081;-82
2023/06/07 05:30:38;;;;;;;10.73;5.38;;;;;;;12.26;100.00;101680.94;6245876;23;20368;-80
2023/06/07 05:33:05;;;;;;;10.77;6.03;;;;;;;12.40;100.00;101670.50;6195783;23;20111;-79
2023/06/07 05:35:31;;;;;;;9.38;5.05;;;;;;;12.63;100.00;101668.88;6195538;23;20008;-80
2023/06/07 05:37:56;;;;;;;10.00;6.72;;;;;;;12.76;100.00;101663.81;6195295;23;20011;-79
2023/06/07 05:40:22;;;;;;;10.90;6.38;;;;;;;12.95;100.00;101673.44;6195127;23;20004;-79
2023/06/07 05:42:51;;;;;;;7.88;5.22;;;;;;;13.14;100.00;101671.41;6195757;23;20027;-83
2023/06/07 05:45:19;;;;;;;6.72;4.03;;;;;;;13.50;100.00;101671.03;6196259;23;20023;-79
2023/06/07 05:47:45;;;;;;;11.52;6.30;;;;;;;13.83;100.00;101672.59;6195997;23;20024;-83
2023/06/07 05:50:11;;;;;;;6.85;4.82;;;;;;;14.16;99.30;101677.88;6200219;23;20019;-81
2023/06/07 05:52:37;;;;;;;9.18;5.68;;;;;;;14.46;97.60;101683.47;6237497;23;20006;-80
2023/06/07 05:55:03;;;;;;;6.10;5.20;;;;;;;14.74;95.45;101675.69;6255985;23;20012;-80
2023/06/07 05:57:29;;;;;;;10.00;5.72;;;;;;;14.79;96.16;101681.41;6195660;23;20016;-83
2023/06/07 05:59:55;;;;;;;8.52;4.95;;;;;;;14.97;93.20;101670.25;6220118;23;20050;-81
2023/06/07 06:02:23;;;;;;;10.77;6.95;;;;;;;15.28;91.48;101672.00;6170783;23;20413;-80
2023/06/07 06:04:51;;;;;;;8.35;5.93;;;;;;;15.51;89.70;101675.47;6220364;23;20016;-83
2023/06/07 06:07:17;;;;;;;9.95;6.18;;;;;;;15.65;89.28;101668.38;6220935;23;20031;-82
2023/06/07 06:09:42;;;;;;;9.85;5.82;;;;;;;15.75;86.78;101676.28;6170445;23;20016;-80
2023/06/07 06:12:09;;;;;;;9.13;5.50;;;;;;;15.93;87.88;101679.44;6170516;23;20008;-81
2023/06/07 06:14:34;;;;;;;8.18;5.03;;;;;;;16.24;87.37;101671.03;6195062;23;20000;-81
2023/06/07 06:17:02;;;;;;;8.15;4.85;;;;;;;16.58;85.57;101677.69;6170687;23;20016;-80
2023/06/07 06:19:28;;;;;;;10.00;6.05;;;;;;;16.81;83.72;101672.09;6170807;23;20087;-81
2023/06/07 06:21:53;;;;;;;10.75;6.78;;;;;;;17.09;81.66;101682.16;6170563;23;20102;-82
2023/06/07 06:24:19;;;;;;;7.80;5.05;;;;;;;17.23;77.89;101677.69;6195239;23;20499;-81
2023/06/07 06:26:45;;;;;;;8.60;5.93;;;;;;;17.36;80.04;101666.91;6195384;23;20360;-80
2023/06/07 06:29:10;;;;;;;9.00;5.13;;;;;;;17.26;78.41;101682.72;6194992;23;20380;-80
2023/06/07 06:31:43;;;;;;;8.00;6.22;;;;;;;16.99;75.14;101687.94;6195072;23;20011;-83
2023/06/07 06:34:10;;;;;;;10.38;6.82;;;;;;;16.79;78.82;101686.91;6246934;23;20007;-80
2023/06/07 06:36:37;;;;;;;7.40;4.95;;;;;;;16.78;79.67;101682.50;6170467;23;20425;-84
2023/06/07 06:39:03;;;;;;;9.60;6.03;;;;;;;16.88;80.84;101686.59;6170704;23;20008;-80
2023/06/07 06:41:30;;;;;;;9.63;5.88;;;;;;;17.21;80.90;101685.19;6195320;23;20008;-80
2023/06/07 06:43:56;;;;;;;8.48;5.15;;;;;;;17.88;76.17;101687.31;6220218;23;20014;-81
2023/06/07 06:46:21;;;;;;;8.55;5.15;;;;;;;18.23;71.53;101682.66;6169784;23;20012;-80
2023/06/07 06:48:47;;;;;;;9.60;6.40;;;;;;;18.55;70.31;101682.09;6194806;23;20095;-83
2023/06/07 06:51:13;;;;;;;9.85;6.00;;;;;;;18.76;67.93;101673.81;6194622;23;20389;-86
2023/06/07 06:53:38;;;;;;;9.50;5.75;;;;;;;18.92;67.14;101668.97;6245910;23;20424;-84
2023/06/07 06:56:06;;;;;;;9.52;6.00;;;;;;;19.18;67.41;101666.25;6170065;23;20533;-81
2023/06/07 06:58:34;;;;;;;9.85;6.10;;;;;;;19.63;63.26;101685.50;6170388;23;20004;-81
2023/06/07 07:01:01;;;;;;;6.28;4.05;;;;;;;19.85;64.64;101688.84;6208759;23;20004;-81
2023/06/07 07:03:28;;;;;;;8.77;6.00;;;;;;;20.09;63.21;101687.28;6219601;23;20564;-81
2023/06/07 07:05:54;;;;;;;7.30;5.47;;;;;;;20.37;61.95;101686.09;6245244;23;20010;-81
2023/06/07 07:08:20;;;;;;;5.32;4.32;;;;;;;20.50;60.71;101677.81;6245279;23;20008;-83
2023/06/07 07:10:47;;;;;;;11.60;6.32;;;;;;;20.78;62.12;101672.00;6219605;23;20004;-83
2023/06/07 07:13:14;;;;;;;10.50;6.13;;;;;;;21.40;57.40;101684.97;6244982;23;20007;-84
2023/06/07 07:15:40;;;;;;;7.25;5.03;;;;;;;21.54;56.22;101678.31;6170228;23;20011;-81
2023/06/07 07:18:07;;;;;;;10.15;6.00;;;;;;;21.71;55.97;101686.75;6219720;23;20004;-86
2023/06/07 07:20:33;;;;;;;8.88;5.13;;;;;;;21.94;53.62;101678.69;6220627;23;20008;-84
2023/06/07 07:23:01;;;;;;;9.63;5.32;;;;;;;22.03;52.87;101681.94;6248013;23;20425;-80
2023/06/07 07:25:27;;;;;;;7.80;5.50;;;;;;;21.99;51.81;101666.19;6262109;23;20043;-80
2023/06/07 07:27:56;;;;;;;7.53;5.10;;;;;;;22.39;52.36;101683.84;6201597;23;19996;-86
2023/06/07 07:30:26;;;;;;;14.32;6.57;;;;;;;22.92;52.64;101667.66;6194850;23;20035;-82
2023/06/07 07:32:57;;;;;;;7.05;4.85;;;;;;;23.67;51.22;101688.94;6244643;23;20008;-80
2023/06/07 07:35:26;;;;;;;8.55;5.35;;;;;;;23.91;47.15;101671.34;6193691;23;20004;-78
2023/06/07 07:37:53;;;;;;;9.35;5.82;;;;;;;23.59;44.80;101687.38;6242564;23;20000;-78
2023/06/07 07:40:22;;;;;;;7.47;4.53;;;;;;;23.57;47.89;101681.28;6192567;23;20558;-77
2023/06/07 07:42:48;;;;;;;8.70;5.60;;;;;;;23.75;44.51;101693.25;6192367;23;20105;-79
2023/06/07 07:45:15;;;;;;;10.65;5.90;;;;;;;23.56;42.44;101687.88;6190595;23;20412;-77
2023/06/07 07:47:46;;;;;;;9.38;5.72;;;;;;;23.38;44.83;101691.56;6192636;23;20000;-77
2023/06/07 07:50:15;;;;;;;9.48;6.03;;;;;;;23.59;44.20;101692.03;6218735;23;20032;-76
2023/06/07 07:52:43;;;;;;;9.52;6.15;;;;;;;23.68;42.10;101683.22;6219471;23;20001;-75
2023/06/07 07:55:10;;;;;;;8.18;5.53;;;;;;;23.58;43.13;101690.38;6194747;23;20010;-75
2023/06/07 07:57:38;;;;;;;8.20;6.03;;;;;;;23.53;43.31;101680.13;6194696;23;20012;-75
2023/06/07 08:00:13;;;;;;;7.75;5.90;;;;;;;23.62;43.72;101686.06;6194486;23;20091;-78
2023/06/07 08:02:45;;;;;;;9.30;5.95;;;;;;;24.22;43.79;101673.91;6245099;23;20000;-77
2023/06/07 08:05:19;;;;;;;9.13;6.10;;;;;;;24.77;43.00;101674.13;6196502;23;20011;-77
2023/06/07 08:07:50;;;;;;;6.82;4.15;;;;;;;25.30;41.48;101674.75;6222930;23;20075;-77
2023/06/07 08:10:18;;;;;;;10.73;5.68;;;;;;;25.63;41.26;101676.59;6222853;23;20413;-76
2023/06/07 08:12:46;;;;;;;6.75;4.40;;;;;;;25.82;39.93;101679.88;6197112;23;20011;-77
2023/06/07 08:15:12;;;;;;;7.50;5.47;;;;;;;26.18;39.15;101679.53;6246314;23;20026;-76
2023/06/07 08:17:41;;;;;;;9.55;5.90;;;;;;;26.17;38.26;101677.84;6196321;23;20004;-76
2023/06/07 08:20:08;;;;;;;6.88;4.82;;;;;;;26.05;39.33;101666.97;6247099;23;20000;-76
2023/06/07 08:22:39;;;;;;;6.97;5.18;;;;;;;25.91;37.61;101662.91;6196680;23;20008;-76
2023/06/07 08:25:13;;;;;;;7.10;5.07;;;;;;;25.56;38.54;101656.69;6197647;23;20004;-77
2023/06/07 08:27:51;;;;;;;10.02;6.60;;;;;;;25.61;40.07;101655.91;6197043;23;20000;-76
2023/06/07 08:30:21;;;;;;;10.30;6.03;;;;;;;26.15;39.39;101661.56;6247142;23;19993;-77
2023/06/07 08:32:50;;;;;;;5.15;4.57;;;;;;;26.62;36.38;101666.50;6246850;23;20004;-75
2023/06/07 08:35:16;;;;;;;8.23;6.07;;;;;;;26.39;37.99;101656.59;6221704;23;20013;-76
2023/06/07 08:38:02;;;;;;;7.45;5.05;;;;;;;26.88;36.95;101666.72;6196336;23;20004;-76
2023/06/07 08:40:32;;;;;;;9.00;6.18;;;;;;;26.73;36.47;101659.16;6223643;23;20008;-76
2023/06/07 08:43:03;;;;;;;10.88;6.45;;;;;;;26.63;38.24;101670.09;6246659;23;20420;-80
2023/06/07 08:45:31;;;;;;;8.93;6.22;;;;;;;26.94;37.61;101668.44;6196867;23;20012;-79
2023/06/07 08:48:08;;;;;;;6.38;4.57;;;;;;;27.03;36.08;101675.13;6220642;23;20417;-80
2023/06/07 08:50:55;;;;;;;6.70;5.15;;;;;;;26.37;37.30;101667.03;6197377;23;20000;-79
2023/06/07 08:53:30;;;;;;;7.82;5.72;;;;;;;26.25;36.35;101664.44;6222354;23;20425;-81
2023/06/07 08:56:00;;;;;;;6.60;4.60;;;;;;;26.19;36.36;101667.41;6246434;23;20008;-80
2023/06/07 08:58:31;;;;;;;10.98;6.18;;;;;;;26.23;38.18;101660.28;6195006;23;20008;-80
2023/06/07 09:01:07;;;;;;;6.85;5.80;;;;;;;26.84;37.45;101665.59;6245937;23;20345;-80
2023/06/07 09:03:35;;;;;;;8.45;5.72;;;;;;;27.42;35.77;101661.09;6221196;23;20000;-81
2023/06/07 09:06:04;;;;;;;11.38;6.68;;;;;;;27.53;35.88;101662.78;6195913;23;20380;-82
2023/06/07 09:08:40;;;;;;;13.23;7.32;;;;;;;27.75;35.88;101664.56;6220895;23;20078;-79
2023/06/07 09:11:06;;;;;;;10.15;5.90;;;;;;;28.45;34.84;101657.66;6220198;23;20047;-79
2023/06/07 09:13:32;;;;;;;12.15;6.32;;;;;;;29.04;33.80;101652.69;6195514;23;20004;-82
2023/06/07 09:16:00;;;;;;;9.60;5.90;;;;;;;29.39;32.43;101640.75;6220596;23;20448;-79
2023/06/07 09:18:41;;;;;;;8.27;6.35;;;;;;;29.50;33.62;101647.91;6221258;23;20036;-79
2023/06/07 09:21:35;;;;;;;10.43;6.25;;;;;;;29.18;33.89;101645.50;6221433;23;20091;-79
2023/06/07 09:24:00;;;;;;;8.05;5.45;;;;;;;28.94;32.75;101640.50;6190980;23;20046;-80
2023/06/07 09:26:38;;;;;;;8.02;5.65;;;;;;;28.68;35.85;101647.16;6220565;23;20000;-80
2023/06/07 09:29:07;;;;;;;8.93;6.38;;;;;;;28.98;34.52;101648.25;6246291;23;20032;-79
2023/06/07 09:31:34;;;;;;;7.70;5.95;;;;;;;29.06;33.64;101653.28;6221120;23;20000;-78
2023/06/07 09:34:19;;;;;;;8.38;6.38;;;;;;;28.88;34.95;101654.63;6245892;23;20001;-80
2023/06/07 09:36:57;;;;;;;8.63;6.32;;;;;;;29.17;34.35;101649.38;6220613;23;20340;-80
2023/06/07 09:39:28;;;;;;;10.45;6.25;;;;;;;29.33;33.30;101648.22;6221000;23;20001;-78
2023/06/07 09:41:56;;;;;;;11.25;6.95;;;;;;;28.89;32.65;101636.91;6245698;23;20043;-80
2023/06/07 09:44:22;;;;;;;9.18;6.72;;;;;;;28.87;35.46;101637.22;6245407;23;20078;-79
2023/06/07 09:46:49;;;;;;;9.40;6.65;;;;;;;29.39;34.48;101651.00;6220728;23;20004;-79
2023/06/07 09:49:28;;;;;;;9.38;7.75;;;;;;;29.05;32.03;101651.59;6245721;23;20173;-79
2023/06/07 09:51:55;;;;;;;9.57;6.13;;;;;;;28.31;35.39;101650.13;6245612;23;20031;-79
2023/06/07 09:54:38;;;;;;;9.75;6.70;;;;;;;28.28;34.31;101645.97;6220510;23;20019;-79
2023/06/07 09:57:27;;;;;;;11.25;8.02;;;;;;;28.41;35.07;101662.03;6246156;23;20004;-79
2023/06/07 10:00:07;;;;;;;9.38;6.95;;;;;;;28.35;34.17;101654.84;6245885;23;20007;-78
2023/06/07 10:02:33;;;;;;;9.82;7.75;;;;;;;27.70;35.86;101659.00;6199756;23;20083;-79
2023/06/07 10:05:00;;;;;;;10.75;7.47;;;;;;;27.69;36.07;101665.63;6170348;23;20035;-79
2023/06/07 10:07:52;;;;;;;15.65;9.40;;;;;;;27.89;36.28;101649.19;6170708;23;20016;-78
2023/06/07 10:10:21;;;;;;;13.85;7.60;;;;;;;28.07;35.49;101656.13;6189803;23;20079;-78
2023/06/07 10:12:50;;;;;;;10.07;6.28;;;;;;;28.23;34.56;101655.06;6196062;23;20046;-79
2023/06/07 10:15:25;;;;;;;11.15;8.15;;;;;;;27.86;35.81;101655.22;6195725;23;20008;-79
2023/06/07 10:18:14;;;;;;;10.80;8.05;;;;;;;27.79;35.02;101652.69;6170276;23;20519;-79
2023/06/07 10:20:48;;;;;;;11.07;8.27;;;;;;;26.87;37.66;101649.34;6200556;23;20008;-78
2023/06/07 10:23:22;;;;;;;12.15;8.93;;;;;;;26.60;39.37;101654.91;6195139;23;20054;-79
2023/06/07 10:25:53;;;;;;;10.75;8.00;;;;;;;26.88;36.64;101647.41;6195258;23;20066;-79
2023/06/07 10:28:32;;;;;;;6.97;5.72;;;;;;;27.18;36.93;101641.31;6170290;23;20008;-79
2023/06/07 10:31:05;;;;;;;10.07;6.45;;;;;;;27.09;36.31;101635.41;6220172;23;20000;-79
2023/06/07 10:33:33;;;;;;;12.97;8.37;;;;;;;26.84;36.71;101638.00;6147727;23;20107;-79
2023/06/07 10:35:58;;;;;;;11.85;7.88;;;;;;;27.16;36.40;101640.72;6220185;23;20000;-79
2023/06/07 10:38:24;;;;;;;12.85;7.60;;;;;;;27.79;35.38;101649.94;6195156;23;20015;-78
2023/06/07 10:40:51;;;;;;;7.75;6.47;;;;;;;28.15;35.32;101641.78;6170011;23;20448;-79
2023/06/07 10:43:19;;;;;;;10.75;7.18;;;;;;;28.23;35.59;101637.66;6170076;23;20007;-80
2023/06/07 10:45:45;;;;;;;12.85;8.40;;;;;;;27.91;35.68;101648.91;6194889;23;20004;-80
2023/06/07 10:48:32;;;;;;;10.15;7.28;;;;;;;27.93;36.07;101636.47;6171640;23;20043;-78
2023/06/07 10:50:58;;;;;;;11.73;7.43;;;;;;;27.62;36.09;101641.84;6205895;23;20011;-80
2023/06/07 10:53:24;;;;;;;19.90;9.45;;;;;;;28.17;37.33;101647.06;6170197;23;20012;-80
2023/06/07 10:55:50;;;;;;;14.48;9.35;;;;;;;29.16;33.46;101639.41;6170496;23;20283;-80
2023/06/07 10:58:29;;;;;;;8.48;5.97;;;;;;;26.65;36.94;101632.88;6194750;23;20438;-79
2023/06/07 11:00:56;;;;;;;17.23;9.30;;;;;;;26.48;40.54;101629.38;6232339;23;20004;-80
2023/06/07 11:03:25;;;;;;;15.27;8.55;;;;;;;26.52;39.08;101627.78;6219976;23;20062;-80
2023/06/07 11:05:57;;;;;;;10.52;6.28;;;;;;;25.97;38.49;101623.34;6220002;23;20008;-79
2023/06/07 11:08:28;;;;;;;15.48;8.00;;;;;;;25.80;39.76;101613.19;6245055;23;20015;-80
2023/06/07 11:11:00;;;;;;;9.88;8.32;;;;;;;27.38;36.87;101616.56;6195027;23;20027;-82
2023/06/07 11:13:44;;;;;;;11.40;6.75;;;;;;;28.90;33.26;101613.69;6220112;23;20383;-80
2023/06/07 11:16:22;;;;;;;9.80;6.97;;;;;;;26.83;36.91;101622.53;6219447;23;20329;-81
2023/06/07 11:18:55;;;;;;;9.63;6.75;;;;;;;28.92;33.99;101623.38;6219791;23;20336;-81
2023/06/07 11:21:21;;;;;;;8.40;6.35;;;;;;;28.41;34.19;101601.19;6219924;23;20004;-79
2023/06/07 11:24:10;;;;;;;8.68;6.93;;;;;;;27.46;35.20;101604.19;6219757;23;20008;-79
2023/06/07 11:26:36;;;;;;;10.40;6.78;;;;;;;27.41;37.00;101606.91;6219814;23;20012;-81
2023/06/07 11:29:04;;;;;;;13.00;6.85;;;;;;;27.02;36.51;101607.22;6194655;23;20425;-81